createdAt,value
2019-06-01T00:00:24.936Z,1.40
2019-06-01T00:02:56.299Z,1.70
2019-06-01T00:05:23.517Z,1.40
2019-06-01T00:07:51.947Z,1.40
2019-06-01T00:10:20.425Z,1.47
2019-06-01T00:12:49.547Z,1.50
2019-06-01T00:15:18.024Z,1.37
2019-06-01T00:17:46.441Z,1.40
2019-06-01T00:20:14.848Z,1.45
2019-06-01T00:22:43.338Z,1.72
2019-06-01T00:25:11.756Z,1.50
2019-06-01T00:27:40.474Z,1.70
2019-06-01T00:30:24.183Z,1.60
2019-06-01T00:32:40.987Z,1.10
2019-06-01T00:35:09.653Z,1.62
2019-06-01T00:37:38.082Z,1.60
2019-06-01T00:40:07.449Z,1.60
2019-06-01T00:42:35.974Z,1.30
2019-06-01T00:45:06.808Z,1.10
2019-06-01T00:47:35.232Z,1.20
2019-06-01T00:50:05.663Z,1.32
2019-06-01T00:52:33.744Z,1.20
2019-06-01T00:55:02.233Z,0.93
2019-06-01T00:57:30.645Z,1.15
2019-06-01T00:59:59.041Z,1.02
2019-06-01T01:02:27.464Z,1.10
2019-06-01T01:05:10.042Z,1.20
2019-06-01T01:07:38.340Z,1.05
2019-06-01T01:10:07.049Z,1.10
2019-06-01T01:12:37.111Z,1.25
2019-06-01T01:15:06.289Z,1.25
2019-06-01T01:17:34.780Z,1.07
2019-06-01T01:20:04.618Z,1.02
2019-06-01T01:22:33.051Z,0.90
2019-06-01T01:25:01.540Z,0.98
2019-06-01T01:27:29.940Z,0.80
2019-06-01T01:29:58.342Z,1.07
2019-06-01T01:32:26.437Z,0.98
2019-06-01T01:34:55.591Z,0.90
2019-06-01T01:37:24.039Z,1.10
2019-06-01T01:39:52.458Z,1.20
2019-06-01T01:42:20.884Z,0.88
2019-06-01T01:44:50.305Z,1.05
2019-06-01T01:47:18.874Z,1.00
2019-06-01T01:49:47.281Z,1.02
2019-06-01T01:52:15.691Z,0.95
2019-06-01T01:54:44.108Z,1.00
2019-06-01T01:57:12.516Z,1.10
2019-06-01T01:59:40.932Z,0.80
2019-06-01T02:02:09.416Z,1.10
2019-06-01T02:04:37.837Z,1.30
2019-06-01T02:07:06.244Z,1.17
2019-06-01T02:09:34.720Z,1.00
2019-06-01T02:12:03.143Z,0.90
2019-06-01T02:14:31.543Z,1.20
2019-06-01T02:17:00.312Z,1.02
2019-06-01T02:19:28.948Z,1.00
2019-06-01T02:21:58.323Z,0.82
2019-06-01T02:24:26.812Z,0.98
2019-06-01T02:26:55.237Z,0.85
2019-06-01T02:29:23.632Z,1.20
2019-06-01T02:31:52.062Z,0.93
2019-06-01T02:34:20.477Z,1.22
2019-06-01T02:36:48.875Z,0.80
2019-06-01T02:39:17.760Z,1.00
2019-06-01T02:41:46.506Z,0.82
2019-06-01T02:44:14.592Z,1.10
2019-06-01T02:46:42.998Z,1.00
2019-06-01T02:49:11.105Z,1.00
2019-06-01T02:51:39.505Z,0.90
2019-06-01T02:54:07.596Z,1.10
2019-06-01T02:56:35.995Z,0.90
2019-06-01T02:59:04.552Z,0.88
2019-06-01T03:01:37.515Z,1.00
2019-06-01T03:04:08.124Z,1.12
2019-06-01T03:06:39.301Z,1.00
2019-06-01T03:09:09.135Z,1.07
2019-06-01T03:11:39.597Z,1.00
2019-06-01T03:14:08.947Z,1.00
2019-06-01T03:16:40.401Z,0.80
2019-06-01T03:19:08.932Z,1.10
2019-06-01T03:21:37.072Z,0.70
2019-06-01T03:24:09.390Z,0.80
2019-06-01T03:26:43.193Z,0.85
2019-06-01T03:29:16.677Z,0.80
2019-06-01T03:31:45.349Z,1.00
2019-06-01T03:34:14.052Z,1.10
2019-06-01T03:36:43.098Z,1.07
2019-06-01T03:39:12.919Z,1.10
2019-06-01T03:41:42.282Z,0.88
2019-06-01T03:44:10.753Z,0.80
2019-06-01T03:46:39.168Z,1.00
2019-06-01T03:49:07.758Z,0.90
2019-06-01T03:51:36.282Z,0.80
2019-06-01T03:54:05.068Z,1.05
2019-06-01T03:56:34.586Z,0.80
2019-06-01T03:59:03.135Z,0.80
2019-06-01T04:01:31.584Z,1.10
2019-06-01T04:04:00.952Z,1.07
2019-06-01T04:06:29.572Z,0.95
2019-06-01T04:08:57.998Z,0.95
2019-06-01T04:11:26.392Z,0.70
2019-06-01T04:13:54.812Z,1.45
2019-06-01T04:16:22.895Z,1.02
2019-06-01T04:18:51.317Z,0.60
2019-06-01T04:21:19.713Z,0.72
2019-06-01T04:23:47.820Z,1.00
2019-06-01T04:26:16.253Z,0.98
2019-06-01T04:28:44.638Z,0.80
2019-06-01T04:31:13.057Z,0.95
2019-06-01T04:33:41.465Z,0.98
2019-06-01T04:36:10.918Z,0.90
2019-06-01T04:38:39.578Z,1.07
2019-06-01T04:41:08.004Z,0.90
2019-06-01T04:43:36.065Z,0.80
2019-06-01T04:46:04.498Z,0.70
2019-06-01T04:48:32.894Z,1.00
2019-06-01T04:51:01.302Z,1.00
2019-06-01T04:53:29.725Z,0.93
2019-06-01T04:55:58.146Z,1.07
2019-06-01T04:58:26.552Z,0.78
2019-06-01T05:00:54.980Z,0.93
2019-06-01T05:03:23.379Z,0.72
2019-06-01T05:05:51.461Z,0.80
2019-06-01T05:08:19.875Z,0.90
2019-06-01T05:10:48.364Z,0.93
2019-06-01T05:13:16.859Z,0.95
2019-06-01T05:15:45.265Z,0.85
2019-06-01T05:18:14.222Z,0.72
2019-06-01T05:20:43.595Z,1.00
2019-06-01T05:23:12.661Z,1.00
2019-06-01T05:25:41.339Z,1.00
2019-06-01T05:28:11.109Z,0.90
2019-06-01T05:30:39.636Z,0.80
2019-06-01T05:33:22.432Z,0.60
2019-06-01T05:35:38.201Z,0.70
2019-06-01T05:38:07.846Z,0.70
2019-06-01T05:40:36.692Z,0.70
2019-06-01T05:43:05.172Z,0.65
2019-06-01T05:45:33.600Z,0.70
2019-06-01T05:48:02.122Z,0.65
2019-06-01T05:50:30.260Z,0.72
2019-06-01T05:52:58.328Z,0.75
2019-06-01T05:55:26.417Z,0.78
2019-06-01T05:57:54.483Z,0.75
2019-06-01T06:00:25.992Z,0.95
2019-06-01T06:02:54.389Z,0.82
2019-06-01T06:05:22.909Z,0.70
2019-06-01T06:07:51.364Z,0.90
2019-06-01T06:10:20.078Z,0.72
2019-06-01T06:12:48.744Z,1.00
2019-06-01T06:15:17.567Z,0.40
2019-06-01T06:17:45.704Z,0.70
2019-06-01T06:20:14.185Z,0.50
2019-06-01T06:22:42.596Z,0.80
2019-06-01T06:25:11.084Z,0.68
2019-06-01T06:27:40.413Z,0.55
2019-06-01T06:30:08.905Z,0.65
2019-06-01T06:32:37.334Z,0.40
2019-06-01T06:35:06.265Z,0.57
2019-06-01T06:37:34.713Z,0.55
2019-06-01T06:40:03.460Z,0.37
2019-06-01T06:42:31.876Z,0.53
2019-06-01T06:45:03.345Z,0.40
2019-06-01T06:47:30.441Z,0.40
2019-06-01T06:49:58.828Z,0.50
2019-06-01T06:52:27.240Z,0.35
2019-06-01T06:54:55.661Z,0.40
2019-06-01T06:57:24.296Z,0.33
2019-06-01T06:59:52.851Z,0.47
2019-06-01T07:02:21.277Z,0.57
2019-06-01T07:04:49.695Z,0.60
2019-06-01T07:07:18.173Z,0.50
2019-06-01T07:09:46.583Z,0.50
2019-06-01T07:12:14.993Z,0.30
2019-06-01T07:14:43.415Z,0.40
2019-06-01T07:17:11.492Z,0.40
2019-06-01T07:19:39.913Z,0.30
2019-06-01T07:22:08.333Z,0.30
2019-06-01T07:24:36.755Z,0.37
2019-06-01T07:27:05.245Z,0.40
2019-06-01T07:29:33.666Z,0.30
2019-06-01T07:32:01.809Z,0.40
2019-06-01T07:34:39.620Z,0.30
2019-06-01T07:37:00.470Z,0.23
2019-06-01T07:39:29.189Z,0.40
2019-06-01T07:41:58.009Z,0.45
2019-06-01T07:44:26.950Z,0.30
2019-06-01T07:46:55.686Z,0.35
2019-06-01T07:49:25.011Z,0.50
2019-06-01T07:51:53.717Z,0.45
2019-06-01T07:54:22.268Z,0.40
2019-06-01T07:56:50.793Z,0.50
2019-06-01T07:59:19.208Z,0.40
2019-06-01T08:01:47.620Z,0.35
2019-06-01T08:04:16.034Z,0.40
2019-06-01T08:06:47.779Z,0.42
2019-06-01T08:09:14.253Z,0.40
2019-06-01T08:11:42.665Z,0.40
2019-06-01T08:14:11.087Z,0.30
2019-06-01T08:16:39.485Z,0.30
2019-06-01T08:19:07.915Z,0.40
2019-06-01T08:21:35.997Z,0.42
2019-06-01T08:24:04.584Z,0.25
2019-06-01T08:26:33.003Z,0.40
2019-06-01T08:29:01.600Z,0.40
2019-06-01T08:31:31.804Z,0.30
2019-06-01T08:33:59.797Z,0.40
2019-06-01T08:36:27.869Z,0.40
2019-06-01T08:38:56.672Z,0.42
2019-06-01T08:41:25.543Z,0.40
2019-06-01T08:43:54.077Z,0.42
2019-06-01T08:46:23.554Z,0.30
2019-06-01T08:48:52.101Z,0.40
2019-06-01T08:51:20.577Z,0.33
2019-06-01T08:53:48.648Z,0.40
2019-06-01T08:56:17.064Z,0.40
2019-06-01T08:58:45.477Z,0.47
2019-06-01T09:01:13.891Z,0.40
2019-06-01T09:03:46.628Z,0.50
2019-06-01T09:06:12.441Z,0.50
2019-06-01T09:08:40.873Z,0.40
2019-06-01T09:11:09.261Z,0.42
2019-06-01T09:13:37.682Z,0.45
2019-06-01T09:16:06.290Z,0.40
2019-06-01T09:18:35.691Z,0.60
2019-06-01T09:21:04.352Z,0.37
2019-06-01T09:23:33.772Z,0.40
2019-06-01T09:26:02.269Z,0.30
2019-06-01T09:28:31.878Z,0.40
2019-06-01T09:31:00.693Z,0.42
2019-06-01T09:33:30.062Z,0.93
2019-06-01T09:35:58.631Z,0.60
2019-06-01T09:38:27.662Z,0.35
2019-06-01T09:40:56.188Z,0.40
2019-06-01T09:43:24.633Z,0.30
2019-06-01T09:45:53.650Z,0.40
2019-06-01T09:48:21.900Z,0.60
2019-06-01T09:50:50.317Z,0.45
2019-06-01T09:53:18.729Z,0.50
2019-06-01T09:55:47.148Z,0.30
2019-06-01T09:58:15.548Z,0.40
2019-06-01T10:00:44.143Z,0.30
2019-06-01T10:03:12.761Z,0.33
2019-06-01T10:05:41.176Z,0.40
2019-06-01T10:08:09.246Z,0.30
2019-06-01T10:10:38.092Z,0.50
2019-06-01T10:13:07.817Z,0.40
2019-06-01T10:15:36.743Z,0.30
2019-06-01T10:18:04.816Z,0.40
2019-06-01T10:20:33.288Z,0.40
2019-06-01T10:23:01.737Z,0.42
2019-06-01T10:25:30.438Z,0.50
2019-06-01T10:27:58.931Z,0.50
2019-06-01T10:30:27.345Z,0.42
2019-06-01T10:32:55.745Z,0.57
2019-06-01T10:35:24.234Z,0.23
2019-06-01T10:37:52.648Z,0.40
2019-06-01T10:40:21.064Z,0.40
2019-06-01T10:42:49.485Z,0.40
2019-06-01T10:45:18.933Z,0.37
2019-06-01T10:47:47.348Z,0.55
2019-06-01T10:50:17.453Z,0.35
2019-06-01T10:52:46.214Z,0.60
2019-06-01T10:55:15.582Z,0.50
2019-06-01T10:57:44.003Z,0.45
2019-06-01T11:00:13.074Z,0.45
2019-06-01T11:02:41.481Z,0.45
2019-06-01T11:05:10.240Z,0.55
2019-06-01T11:07:39.061Z,0.57
2019-06-01T11:10:08.883Z,0.57
2019-06-01T11:12:37.297Z,0.47
2019-06-01T11:15:05.941Z,0.50
2019-06-01T11:17:34.888Z,0.40
2019-06-01T11:20:04.441Z,0.55
2019-06-01T11:22:33.444Z,0.35
2019-06-01T11:25:01.835Z,0.40
2019-06-01T11:27:30.308Z,0.42
2019-06-01T11:29:58.390Z,0.42
2019-06-01T11:32:26.796Z,0.50
2019-06-01T11:34:55.282Z,0.40
2019-06-01T11:37:23.692Z,0.40
2019-06-01T11:39:52.100Z,0.50
2019-06-01T11:42:21.285Z,0.60
2019-06-01T11:44:49.705Z,0.60
2019-06-01T11:47:18.257Z,0.47
2019-06-01T11:49:46.918Z,0.50
2019-06-01T11:52:15.385Z,0.50
2019-06-01T11:54:43.456Z,0.60
2019-06-01T11:57:11.878Z,0.50
2019-06-01T11:59:41.553Z,0.40
2019-06-01T12:02:10.068Z,0.42
2019-06-01T12:04:39.734Z,0.50
2019-06-01T12:07:17.435Z,0.40
2019-06-01T12:09:38.421Z,0.50
2019-06-01T12:12:06.831Z,0.50
2019-06-01T12:14:36.315Z,0.55
2019-06-01T12:17:04.913Z,0.42
2019-06-01T12:19:33.330Z,0.40
2019-06-01T12:22:01.458Z,0.62
2019-06-01T12:24:29.918Z,0.40
2019-06-01T12:26:58.335Z,0.50
2019-06-01T12:29:26.811Z,0.40
2019-06-01T12:31:55.231Z,0.40
2019-06-01T12:34:23.639Z,0.50
2019-06-01T12:36:52.054Z,0.70
2019-06-01T12:39:20.229Z,0.50
2019-06-01T12:41:48.652Z,0.50
2019-06-01T12:44:16.725Z,0.45
2019-06-01T12:46:44.874Z,0.40
2019-06-01T12:49:13.351Z,0.45
2019-06-01T12:51:42.536Z,0.40
2019-06-01T12:54:11.257Z,0.60
2019-06-01T12:56:40.737Z,0.47
2019-06-01T12:59:08.974Z,0.53
2019-06-01T13:01:37.377Z,0.65
2019-06-01T13:04:05.864Z,0.55
2019-06-01T13:06:33.952Z,0.60
2019-06-01T13:09:02.353Z,0.60
2019-06-01T13:11:30.768Z,0.60
2019-06-01T13:13:59.189Z,0.60
2019-06-01T13:16:27.328Z,0.65
2019-06-01T13:18:55.752Z,0.60
2019-06-01T13:21:27.560Z,0.60
2019-06-01T13:23:54.308Z,0.50
2019-06-01T13:26:22.712Z,0.60
2019-06-01T13:28:51.150Z,0.60
2019-06-01T13:31:19.553Z,0.40
2019-06-01T13:33:50.737Z,0.78
2019-06-01T13:36:18.808Z,0.50
2019-06-01T13:38:47.234Z,0.60
2019-06-01T13:41:15.640Z,0.60
2019-06-01T13:43:45.197Z,0.60
2019-06-01T13:46:13.755Z,0.60
2019-06-01T13:48:43.437Z,0.60
2019-06-01T13:51:12.149Z,0.70
2019-06-01T13:53:40.564Z,0.70
2019-06-01T13:56:08.978Z,0.50
2019-06-01T13:58:37.391Z,0.50
2019-06-01T14:01:05.797Z,0.75
2019-06-01T14:03:34.239Z,1.57
2019-06-01T14:06:02.628Z,0.50
2019-06-01T14:08:31.065Z,0.57
2019-06-01T14:10:59.478Z,1.30
2019-06-01T14:13:27.571Z,0.55
2019-06-01T14:15:55.973Z,0.70
2019-06-01T14:18:24.395Z,0.80
2019-06-01T14:20:53.734Z,0.60
2019-06-01T14:23:22.065Z,0.70
2019-06-01T14:25:50.553Z,0.80
2019-06-01T14:28:19.014Z,0.47
2019-06-01T14:30:48.473Z,0.60
2019-06-01T14:33:17.129Z,0.80
2019-06-01T14:35:46.562Z,0.75
2019-06-01T14:38:15.352Z,0.70
2019-06-01T14:40:43.836Z,0.65
2019-06-01T14:43:12.241Z,0.68
2019-06-01T14:45:40.658Z,0.60
2019-06-01T14:48:09.140Z,0.75
2019-06-01T14:50:37.543Z,0.85
2019-06-01T14:53:05.965Z,0.70
2019-06-01T14:55:34.380Z,0.70
2019-06-01T14:58:02.792Z,0.70
2019-06-01T15:00:30.876Z,0.72
2019-06-01T15:02:59.281Z,0.93
2019-06-01T15:05:27.693Z,0.90
2019-06-01T15:07:57.067Z,0.65
2019-06-01T15:10:25.803Z,0.60
2019-06-01T15:13:00.043Z,0.50
2019-06-01T15:15:24.012Z,0.60
2019-06-01T15:17:53.422Z,0.70
2019-06-01T15:20:22.357Z,0.72
2019-06-01T15:22:52.096Z,0.88
2019-06-01T15:25:21.021Z,0.90
2019-06-01T15:27:50.627Z,0.78
2019-06-01T15:30:20.270Z,0.70
2019-06-01T15:32:49.953Z,0.70
2019-06-01T15:35:18.841Z,0.80
2019-06-01T15:37:47.301Z,0.60
2019-06-01T15:40:15.786Z,0.80
2019-06-01T15:42:44.255Z,0.70
2019-06-01T15:45:13.312Z,0.90
2019-06-01T15:47:41.725Z,0.80
2019-06-01T15:50:10.185Z,0.75
2019-06-01T15:52:38.605Z,0.90
2019-06-01T15:55:08.853Z,0.75
2019-06-01T15:57:37.328Z,0.60
2019-06-01T16:00:10.105Z,0.50
2019-06-01T16:02:38.524Z,2.10
2019-06-01T16:05:08.792Z,0.90
2019-06-01T16:07:36.886Z,0.70
2019-06-01T16:10:08.382Z,1.10
2019-06-01T16:12:37.426Z,0.80
2019-06-01T16:15:08.186Z,0.80
2019-06-01T16:17:36.275Z,0.62
2019-06-01T16:20:09.115Z,0.70
2019-06-01T16:22:37.537Z,0.85
2019-06-01T16:25:09.145Z,0.60
2019-06-01T16:27:37.553Z,0.70
2019-06-01T16:30:08.029Z,0.68
2019-06-01T16:32:39.442Z,0.70
2019-06-01T16:35:09.544Z,0.82
2019-06-01T16:37:37.611Z,0.70
2019-06-01T16:40:10.759Z,0.60
2019-06-01T16:42:39.576Z,0.70
2019-06-01T16:45:09.030Z,0.60
2019-06-01T16:47:37.438Z,0.80
2019-06-01T16:50:08.267Z,0.78
2019-06-01T16:52:36.674Z,0.82
2019-06-01T16:55:07.634Z,0.70
2019-06-01T16:57:36.257Z,0.95
2019-06-01T17:00:07.257Z,0.78
2019-06-01T17:02:36.640Z,0.88
2019-06-01T17:05:07.501Z,1.00
2019-06-01T17:07:35.922Z,0.60
2019-06-01T17:10:21.619Z,1.00
2019-06-01T17:12:42.821Z,0.70
2019-06-01T17:15:07.602Z,0.80
2019-06-01T17:17:36.082Z,0.62
2019-06-01T17:20:08.399Z,0.68
2019-06-01T17:22:36.486Z,0.60
2019-06-01T17:25:07.918Z,0.98
2019-06-01T17:27:36.099Z,0.90
2019-06-01T17:30:09.808Z,3.05
2019-06-01T17:32:35.499Z,1.30
2019-06-01T17:35:05.089Z,1.15
2019-06-01T17:37:33.445Z,1.00
2019-06-01T17:40:02.522Z,1.05
2019-06-01T17:42:30.673Z,1.50
2019-06-01T17:44:58.744Z,0.95
2019-06-01T17:47:27.470Z,0.80
2019-06-01T17:49:55.945Z,0.90
2019-06-01T17:52:24.348Z,0.75
2019-06-01T17:54:52.765Z,1.00
2019-06-01T17:57:21.180Z,0.80
2019-06-01T17:59:49.597Z,1.00
2019-06-01T18:02:18.018Z,1.00
2019-06-01T18:04:46.432Z,0.75
2019-06-01T18:07:14.856Z,0.80
2019-06-01T18:09:43.256Z,0.90
2019-06-01T18:12:12.296Z,1.02
2019-06-01T18:14:40.920Z,0.90
2019-06-01T18:17:10.325Z,0.80
2019-06-01T18:19:38.911Z,1.00
2019-06-01T18:22:08.679Z,1.15
2019-06-01T18:24:37.328Z,4.03
2019-06-01T18:27:06.509Z,1.77
2019-06-01T18:29:38.792Z,1.00
2019-06-01T18:32:06.067Z,1.05
2019-06-01T18:34:34.905Z,0.90
2019-06-01T18:37:03.331Z,1.00
2019-06-01T18:39:31.797Z,0.80
2019-06-01T18:42:00.233Z,0.72
2019-06-01T18:44:28.634Z,1.10
2019-06-01T18:46:57.120Z,1.00
2019-06-01T18:49:25.526Z,0.80
2019-06-01T18:51:53.697Z,0.70
2019-06-01T18:54:21.760Z,0.98
2019-06-01T18:56:49.853Z,0.70
2019-06-01T18:59:18.273Z,0.70
2019-06-01T19:01:46.368Z,0.80
2019-06-01T19:04:14.436Z,0.90
2019-06-01T19:06:42.847Z,0.85
2019-06-01T19:09:11.330Z,0.90
2019-06-01T19:11:39.820Z,0.82
2019-06-01T19:14:08.236Z,0.90
2019-06-01T19:16:36.653Z,0.90
2019-06-01T19:19:06.239Z,0.78
2019-06-01T19:21:34.765Z,0.98
2019-06-01T19:24:03.194Z,0.80
2019-06-01T19:26:31.618Z,0.95
2019-06-01T19:29:00.020Z,0.93
2019-06-01T19:31:28.440Z,0.90
2019-06-01T19:33:56.525Z,0.80
2019-06-01T19:36:25.317Z,1.37
2019-06-01T19:38:54.866Z,1.10
2019-06-01T19:41:23.296Z,1.40
2019-06-01T19:43:51.708Z,1.55
2019-06-01T19:46:20.113Z,1.80
2019-06-01T19:48:48.598Z,1.30
2019-06-01T19:51:16.780Z,1.82
2019-06-01T19:53:45.284Z,1.42
2019-06-01T19:56:14.928Z,1.30
2019-06-01T19:58:43.480Z,2.27
2019-06-01T20:01:12.269Z,1.98
2019-06-01T20:03:40.911Z,2.15
2019-06-01T20:06:10.575Z,2.33
2019-06-01T20:08:39.218Z,1.70
2019-06-01T20:11:07.625Z,1.75
2019-06-01T20:13:36.048Z,1.40
2019-06-01T20:16:04.528Z,1.50
2019-06-01T20:18:32.951Z,1.42
2019-06-01T20:21:01.421Z,1.42
2019-06-01T20:23:29.847Z,1.35
2019-06-01T20:25:58.249Z,1.50
2019-06-01T20:28:26.676Z,1.62
2019-06-01T20:30:54.764Z,1.50
2019-06-01T20:33:23.176Z,1.37
2019-06-01T20:35:51.589Z,1.90
2019-06-01T20:38:20.517Z,1.70
2019-06-01T20:40:49.101Z,1.90
2019-06-01T20:43:18.616Z,2.08
2019-06-01T20:45:47.294Z,1.75
2019-06-01T20:48:16.944Z,1.90
2019-06-01T20:50:45.783Z,1.80
2019-06-01T20:53:14.869Z,1.90
2019-06-01T20:55:43.481Z,1.72
2019-06-01T20:58:11.687Z,1.80
2019-06-01T21:00:40.456Z,2.17
2019-06-01T21:03:08.876Z,1.80
2019-06-01T21:05:37.287Z,1.67
2019-06-01T21:08:05.781Z,1.80
2019-06-01T21:10:34.198Z,2.10
2019-06-01T21:13:02.605Z,1.98
2019-06-01T21:15:31.005Z,1.72
2019-06-01T21:17:59.441Z,1.75
2019-06-01T21:20:29.931Z,1.95
2019-06-01T21:22:58.006Z,1.98
2019-06-01T21:25:26.412Z,1.87
2019-06-01T21:27:54.845Z,1.80
2019-06-01T21:30:24.609Z,1.98
2019-06-01T21:32:53.377Z,1.90
2019-06-01T21:35:21.799Z,1.90
2019-06-01T21:37:50.281Z,2.60
2019-06-01T21:40:19.430Z,2.62
2019-06-01T21:43:01.056Z,2.20
2019-06-01T21:45:18.108Z,2.00
2019-06-01T21:47:46.525Z,1.50
2019-06-01T21:50:18.168Z,2.00
2019-06-01T21:52:47.280Z,1.95
2019-06-01T21:55:16.056Z,1.67
2019-06-01T21:57:44.252Z,1.90
2019-06-01T22:00:40.148Z,1.62
2019-06-01T22:03:09.071Z,1.87
2019-06-01T22:05:37.144Z,2.17
2019-06-01T22:08:05.641Z,1.82
2019-06-01T22:10:33.782Z,1.90
2019-06-01T22:13:17.509Z,1.70
2019-06-01T22:15:31.988Z,1.70
2019-06-01T22:18:00.393Z,1.90
2019-06-01T22:20:28.817Z,1.77
2019-06-01T22:22:56.905Z,1.60
2019-06-01T22:25:26.089Z,2.00
2019-06-01T22:27:54.491Z,1.80
2019-06-01T22:30:22.899Z,1.70
2019-06-01T22:32:51.310Z,1.70
2019-06-01T22:35:20.867Z,1.50
2019-06-01T22:37:49.420Z,1.70
2019-06-01T22:40:19.375Z,1.72
2019-06-01T22:42:47.789Z,1.90
2019-06-01T22:45:15.936Z,2.00
2019-06-01T22:47:44.019Z,2.10
2019-06-01T22:50:12.872Z,2.00
2019-06-01T22:52:41.274Z,1.52
2019-06-01T22:55:09.835Z,2.42
2019-06-01T22:57:38.254Z,1.65
2019-06-01T23:00:07.407Z,2.02
2019-06-01T23:02:35.815Z,1.90
2019-06-01T23:05:05.360Z,1.98
2019-06-01T23:07:33.768Z,1.77
2019-06-01T23:10:02.211Z,2.58
2019-06-01T23:12:31.630Z,1.80
2019-06-01T23:15:00.256Z,2.20
2019-06-01T23:17:29.799Z,1.90
2019-06-01T23:19:58.463Z,1.92
2019-06-01T23:22:26.529Z,2.10
2019-06-01T23:24:54.949Z,2.15
2019-06-01T23:27:24.020Z,1.95
2019-06-01T23:29:52.746Z,1.90
2019-06-01T23:32:22.269Z,1.65
2019-06-01T23:34:50.936Z,1.77
2019-06-01T23:37:19.338Z,2.00
2019-06-01T23:39:47.416Z,1.98
2019-06-01T23:42:16.301Z,2.00
2019-06-01T23:44:44.955Z,1.50
2019-06-01T23:47:13.361Z,1.98
2019-06-01T23:49:41.769Z,1.77
2019-06-01T23:52:10.201Z,1.70
2019-06-01T23:54:38.635Z,1.90
2019-06-01T23:57:07.110Z,1.72
2019-06-01T23:59:35.517Z,1.87
